A- A+ FrançaisEnglishEspañol中国

Services sur Internet Soldes sur Internet Des idées de cadeaux Météo Météo aéro

La météo à : Autours de vous Tarbes-Lourdes-PyrénéesMontargis-VimoryLe-Mans-Arnage Montpellier-Frejorgues

manche à air

La météo aéronautique pour les pilotes, la préparation du vol avec les METAR (METeorological Aerodrome Report, message d'observation des conditions météorologiques pour l'aviation) et Les TAF (Terminal Aerodrome Forecast : message de prévision à court terme des conditions météorologiques pour l'aviation). Et les autres ressources comme les VAC (Visual Approch Chart) et les NOTAM (Notice To Airman) pour préprer les vols.

Aéroport Niamtougou (Togo) / OACI DXNG/ IATA LRL

L'altitude de l'aéroport Niamtougou est de 462 m = 1516 ft. Il est situé à proximité de Niamtougou (Togo). La météo générale à 5 jours est disponible pour Région de la Kara situé à 22.2 km.

METAR de l'aéroport Niamtougou - DXNG

DXNG 110300Z 04006KT CAVOK 21/11 Q1013

Décodage du METAR de l'aéroport Niamtougou (TG)

METAR émis par DXNG le mercredi 11 décembre 2019 à 03:00 heure TU. Attention ce METAR est obsolète car il a été émis il y a 47 minutes.

La visibilité est de supérieure à 10 km = supérieure à 6.2 sm.

La température est de 21°C = 70 °F et le point rosée est de 11°C = 52 °F . Ce qui correspond à 53% d'humidité relative.

Le QNH est de 1013 hPa = 29.91 inHg

Vent de 6 kt = 11 km/h, orienté à 40°.

Pas de nuages.

TAF de l'aéroport Niamtougou - DXNG

DXNG 102300Z 1100/1124 VRB05KT CAVOK

DXNG 102300Z 1100/1124 VRB05KT visibilité supérieure à 10km, aucun nuage à une hauteur inférieure à 5000 ft ou sous l'altitude minimale de secteur et aucun cumulonimbus ou cumulus bourgeonnant, quelle que soit leur altitude

Aéroport à proximité de Niamtougou

Météo générale à 5 jours à Région de la Kara (22.2 km)Aéroport Djougou (60 km)Aéroport Natitinou (74 km)Aéroport Sokode (86 km)Aéroport Sansanne Mango (96 km)Aéroport Yendi (126 km)Aéroport Porga (143 km)

Vue aérienne de l'aéroport Niamtougou

NOTAM de l'aéroport Niamtougou

Les NOTAM sont fournis sans aucune garantie de leur actualité. Le pilote est le seul responsable de la vérification de sa validité avant de l'utiliser opérationnellement pour préparer un vol ou l'utiliser lors de sa navigation.

Pas de NOTAM

Sources des données